Time;durP1;ratioP1;P1;durP2;ratioP2;P2;SDS_P1;SDS_P2;PMS_P1;PMS_P2;Temp;Humidity;BMP_temperature;BMP_pressure;BME280_temperature;BME280_humidity;BME280_pressure;Samples;Min_cycle;Max_cycle;Signal;HPM_P1;HPM_P2
2023/07/07 00:00:47;;;;;;;4.55;3.13;;;;;;;;;;5079752;28;20413;-67
2023/07/07 00:03:12;;;;;;;4.68;2.63;;;;;;;;;;5092710;28;20123;-66
2023/07/07 00:05:40;;;;;;;5.47;3.10;;;;;;;;;;5092754;28;20522;-68
2023/07/07 00:08:05;;;;;;;4.47;2.92;;;;;;;;;;5092511;28;20063;-67
2023/07/07 00:10:30;;;;;;;5.40;3.38;;;;;;;;;;5092282;28;20058;-68
2023/07/07 00:12:56;;;;;;;6.97;3.30;;;;;;;;;;5079585;28;20462;-67
2023/07/07 00:15:21;;;;;;;4.78;2.70;;;;;;;;;;5092530;28;20035;-68
2023/07/07 00:17:47;;;;;;;7.20;3.40;;;;;;;;;;5092488;28;20139;-68
2023/07/07 00:20:14;;;;;;;6.28;3.65;;;;;;;;;;5091175;28;20031;-66
2023/07/07 00:22:39;;;;;;;8.30;3.17;;;;;;;;;;5081119;28;20502;-67
2023/07/07 00:25:06;;;;;;;6.05;3.08;;;;;;;;;;5092005;28;20032;-67
2023/07/07 00:27:31;;;;;;;6.55;3.25;;;;;;;;;;5092083;28;20016;-67
2023/07/07 00:29:56;;;;;;;4.40;2.88;;;;;;;;;;5092705;28;20386;-67
2023/07/07 00:32:22;;;;;;;4.23;2.93;;;;;;;;;;5091099;28;20024;-67
2023/07/07 00:34:47;;;;;;;7.38;2.95;;;;;;;;;;5091213;28;20388;-66
2023/07/07 00:37:12;;;;;;;5.05;3.00;;;;;;;;;;5077641;28;20063;-66
2023/07/07 00:39:37;;;;;;;4.93;3.28;;;;;;;;;;5092007;28;20020;-66
2023/07/07 00:42:03;;;;;;;4.83;3.20;;;;;;;;;;5091869;28;20021;-66
2023/07/07 00:44:48;;;;;;;4.78;2.90;;;;;;;;;;5090388;28;20733;-66
2023/07/07 00:47:14;;;;;;;6.85;3.85;;;;;;;;;;5091626;28;20078;-67
2023/07/07 00:49:39;;;;;;;6.57;3.08;;;;;;;;;;5091060;28;20020;-67
2023/07/07 00:52:05;;;;;;;7.45;3.47;;;;;;;;;;5091904;28;20040;-67
2023/07/07 00:54:32;;;;;;;7.80;3.63;;;;;;;;;;5078930;28;20032;-67
2023/07/07 00:56:58;;;;;;;4.85;2.80;;;;;;;;;;5091597;28;20048;-68
2023/07/07 00:59:26;;;;;;;4.97;2.75;;;;;;;;;;5078109;28;20063;-67
2023/07/07 01:01:52;;;;;;;4.40;2.70;;;;;;;;;;5091796;28;20428;-67
2023/07/07 01:04:18;;;;;;;5.03;2.88;;;;;;;;;;5091154;28;20024;-68
2023/07/07 01:06:47;;;;;;;8.38;2.53;;;;;;;;;;5088466;28;20094;-68
2023/07/07 01:09:12;;;;;;;5.93;3.58;;;;;;;;;;5081799;28;20431;-68
2023/07/07 01:11:37;;;;;;;9.50;3.13;;;;;;;;;;5084828;28;20055;-68
2023/07/07 01:14:05;;;;;;;6.80;2.75;;;;;;;;;;5090054;28;20024;-68
2023/07/07 01:16:42;;;;;;;5.43;3.15;;;;;;;;;;5071664;28;20036;-68
2023/07/07 01:19:26;;;;;;;6.35;3.42;;;;;;;;;;5091804;28;20516;-68
2023/07/07 01:21:54;;;;;;;6.17;3.10;;;;;;;;;;5091794;28;20080;-68
2023/07/07 01:24:28;;;;;;;5.25;3.05;;;;;;;;;;5085459;28;20282;-67
2023/07/07 01:27:12;;;;;;;5.53;3.28;;;;;;;;;;5091486;28;20372;-67
2023/07/07 01:29:56;;;;;;;6.07;3.42;;;;;;;;;;5090983;28;20036;-68
2023/07/07 01:32:23;;;;;;;7.00;3.63;;;;;;;;;;5079320;28;20055;-67
2023/07/07 01:34:48;;;;;;;8.23;2.70;;;;;;;;;;5091445;28;20381;-66
2023/07/07 01:37:13;;;;;;;5.80;3.13;;;;;;;;;;5091218;28;20032;-67
2023/07/07 01:39:40;;;;;;;4.25;2.60;;;;;;;;;;5091404;28;20020;-66
2023/07/07 01:42:05;;;;;;;6.60;3.28;;;;;;;;;;5086056;28;20035;-67
2023/07/07 01:44:49;;;;;;;5.77;3.63;;;;;;;;;;5090798;28;20028;-67
2023/07/07 01:47:14;;;;;;;4.55;2.47;;;;;;;;;;5091147;28;20270;-66
2023/07/07 01:49:54;;;;;;;6.23;3.10;;;;;;;;;;5091067;28;20486;-66
2023/07/07 01:52:24;;;;;;;7.15;3.08;;;;;;;;;;5090440;28;20032;-67
2023/07/07 01:54:55;;;;;;;4.53;2.90;;;;;;;;;;5077209;28;20020;-67
2023/07/07 01:57:21;;;;;;;6.03;3.20;;;;;;;;;;5090090;28;20032;-67
2023/07/07 01:59:46;;;;;;;5.03;3.30;;;;;;;;;;5091012;28;20024;-67
2023/07/07 02:02:12;;;;;;;4.85;2.78;;;;;;;;;;5089807;28;20424;-67
2023/07/07 02:04:38;;;;;;;4.10;2.60;;;;;;;;;;5091083;28;20146;-67
2023/07/07 02:07:03;;;;;;;4.60;3.15;;;;;;;;;;5090176;28;20115;-66
2023/07/07 02:09:28;;;;;;;4.57;2.72;;;;;;;;;;5082332;28;20086;-66
2023/07/07 02:11:53;;;;;;;4.63;2.88;;;;;;;;;;5090651;28;20028;-67
2023/07/07 02:14:19;;;;;;;14.20;3.03;;;;;;;;;;5090759;28;20082;-66
2023/07/07 02:16:44;;;;;;;6.47;2.90;;;;;;;;;;5077206;28;20095;-66
2023/07/07 02:19:09;;;;;;;4.15;2.63;;;;;;;;;;5089949;28;20027;-68
2023/07/07 02:21:35;;;;;;;6.30;3.13;;;;;;;;;;5090009;28;20470;-68
2023/07/07 02:24:00;;;;;;;6.75;3.03;;;;;;;;;;5088098;28;20648;-68
2023/07/07 02:26:25;;;;;;;4.47;2.80;;;;;;;;;;5090894;28;20494;-68
2023/07/07 02:28:50;;;;;;;5.10;2.63;;;;;;;;;;5090341;28;21003;-68
2023/07/07 02:31:16;;;;;;;5.93;3.13;;;;;;;;;;5089967;28;20112;-67
2023/07/07 02:33:41;;;;;;;3.30;2.53;;;;;;;;;;5090494;28;20315;-68
2023/07/07 02:36:07;;;;;;;5.95;3.33;;;;;;;;;;5090433;28;20032;-68
2023/07/07 02:38:33;;;;;;;6.82;2.60;;;;;;;;;;5090694;28;20401;-68
2023/07/07 02:40:58;;;;;;;4.53;2.83;;;;;;;;;;5090035;28;20020;-68
2023/07/07 02:43:24;;;;;;;6.40;3.00;;;;;;;;;;5080057;28;20016;-68
2023/07/07 02:45:49;;;;;;;5.30;3.00;;;;;;;;;;5085853;28;20062;-68
2023/07/07 02:48:16;;;;;;;5.80;3.22;;;;;;;;;;5092110;28;20032;-68
2023/07/07 02:50:41;;;;;;;5.57;3.38;;;;;;;;;;5092595;28;20024;-69
2023/07/07 02:53:06;;;;;;;3.95;2.47;;;;;;;;;;5078382;28;20039;-68
2023/07/07 02:55:32;;;;;;;5.37;2.97;;;;;;;;;;5089375;28;20474;-68
2023/07/07 02:57:57;;;;;;;4.97;2.80;;;;;;;;;;5089241;28;20707;-69
2023/07/07 03:00:24;;;;;;;6.45;3.05;;;;;;;;;;5088840;28;20278;-67
2023/07/07 03:02:49;;;;;;;4.45;2.95;;;;;;;;;;5090473;28;20058;-67
2023/07/07 03:05:14;;;;;;;5.28;2.85;;;;;;;;;;5089588;28;20047;-68
2023/07/07 03:07:39;;;;;;;5.50;3.40;;;;;;;;;;5092300;28;20017;-68
2023/07/07 03:10:06;;;;;;;5.27;2.87;;;;;;;;;;5092599;28;20092;-68
2023/07/07 03:12:31;;;;;;;4.63;2.53;;;;;;;;;;5092425;28;20274;-68
2023/07/07 03:14:56;;;;;;;8.15;3.25;;;;;;;;;;5087964;28;20028;-68
2023/07/07 03:17:22;;;;;;;6.07;3.20;;;;;;;;;;5092990;28;20111;-68
2023/07/07 03:19:47;;;;;;;8.32;2.90;;;;;;;;;;5073266;28;20329;-67
2023/07/07 03:22:13;;;;;;;5.47;3.10;;;;;;;;;;5097147;28;20386;-67
2023/07/07 03:24:38;;;;;;;6.18;2.33;;;;;;;;;;5095052;28;20020;-67
2023/07/07 03:27:04;;;;;;;4.90;3.10;;;;;;;;;;5095036;28;20427;-66
2023/07/07 03:29:29;;;;;;;5.72;2.97;;;;;;;;;;5071766;28;20039;-67
2023/07/07 03:31:54;;;;;;;6.03;3.17;;;;;;;;;;5093657;28;20044;-66
2023/07/07 03:34:20;;;;;;;4.68;3.00;;;;;;;;;;5091755;28;20093;-66
2023/07/07 03:36:45;;;;;;;5.70;3.15;;;;;;;;;;5093019;28;20167;-66
2023/07/07 03:39:10;;;;;;;5.32;2.70;;;;;;;;;;5092739;28;20028;-68
2023/07/07 03:41:36;;;;;;;13.77;3.25;;;;;;;;;;5085290;28;20020;-68
2023/07/07 03:44:01;;;;;;;5.30;2.63;;;;;;;;;;5084027;28;20047;-68
2023/07/07 03:46:27;;;;;;;9.50;3.33;;;;;;;;;;5091969;28;20029;-68
2023/07/07 03:48:53;;;;;;;8.27;3.33;;;;;;;;;;5092749;28;20032;-68
2023/07/07 03:51:18;;;;;;;5.35;3.22;;;;;;;;;;5092803;28;20481;-68
2023/07/07 03:53:44;;;;;;;5.38;2.72;;;;;;;;;;5093425;28;20020;-66
2023/07/07 03:56:10;;;;;;;9.43;2.97;;;;;;;;;;5091938;28;20024;-66
2023/07/07 03:58:35;;;;;;;5.97;3.05;;;;;;;;;;5093082;28;20032;-66
2023/07/07 04:01:01;;;;;;;5.13;2.80;;;;;;;;;;5092172;28;20043;-66
2023/07/07 04:03:26;;;;;;;4.80;2.65;;;;;;;;;;5093027;28;20074;-66
2023/07/07 04:05:53;;;;;;;8.65;3.53;;;;;;;;;;5093125;28;20034;-66
2023/07/07 04:08:22;;;;;;;5.05;3.03;;;;;;;;;;5093159;28;20023;-66
2023/07/07 04:10:57;;;;;;;8.48;3.55;;;;;;;;;;5092553;28;20020;-67
2023/07/07 04:13:22;;;;;;;5.50;3.10;;;;;;;;;;5092683;28;20374;-67
2023/07/07 04:15:56;;;;;;;7.07;3.10;;;;;;;;;;5086474;28;20024;-67
2023/07/07 04:18:21;;;;;;;8.25;2.72;;;;;;;;;;5091788;28;20028;-67
2023/07/07 04:20:46;;;;;;;5.20;2.70;;;;;;;;;;5092558;28;20392;-67
2023/07/07 04:23:11;;;;;;;6.53;2.93;;;;;;;;;;5091955;28;20031;-67
2023/07/07 04:25:37;;;;;;;4.80;3.07;;;;;;;;;;5091316;28;20285;-67
2023/07/07 04:28:03;;;;;;;4.63;2.80;;;;;;;;;;5091948;28;20278;-67
2023/07/07 04:30:28;;;;;;;5.63;3.22;;;;;;;;;;5091389;28;20506;-66
2023/07/07 04:32:54;;;;;;;6.05;3.15;;;;;;;;;;5091699;28;20051;-66
2023/07/07 04:35:19;;;;;;;10.88;3.85;;;;;;;;;;5092472;28;20032;-66
2023/07/07 04:37:44;;;;;;;10.07;2.90;;;;;;;;;;5090869;28;20044;-67
2023/07/07 04:40:09;;;;;;;6.13;2.85;;;;;;;;;;5074519;28;20032;-67
2023/07/07 04:42:35;;;;;;;5.18;3.08;;;;;;;;;;5079241;28;20456;-67
2023/07/07 04:45:00;;;;;;;5.40;3.17;;;;;;;;;;5091610;28;20128;-67
2023/07/07 04:47:25;;;;;;;4.47;2.65;;;;;;;;;;5092397;28;20265;-67
2023/07/07 04:49:51;;;;;;;4.70;2.55;;;;;;;;;;5092212;28;20485;-67
2023/07/07 04:52:17;;;;;;;4.90;2.53;;;;;;;;;;5091285;28;20028;-67
2023/07/07 04:54:42;;;;;;;5.72;3.25;;;;;;;;;;5087144;28;20046;-67
2023/07/07 04:57:07;;;;;;;6.05;2.60;;;;;;;;;;5091176;28;20112;-65
2023/07/07 04:59:32;;;;;;;8.60;3.40;;;;;;;;;;5092115;28;20073;-66
2023/07/07 05:01:58;;;;;;;7.85;3.15;;;;;;;;;;5091999;28;20285;-67
2023/07/07 05:04:23;;;;;;;4.53;2.60;;;;;;;;;;5091630;28;20095;-66
2023/07/07 05:06:48;;;;;;;5.00;3.13;;;;;;;;;;5090871;28;20028;-66
2023/07/07 05:09:15;;;;;;;5.47;2.88;;;;;;;;;;5091231;28;20754;-67
2023/07/07 05:11:41;;;;;;;6.72;3.33;;;;;;;;;;5091826;28;20470;-67
2023/07/07 05:14:06;;;;;;;7.18;3.40;;;;;;;;;;5091890;28;20062;-66
2023/07/07 05:16:34;;;;;;;5.55;3.00;;;;;;;;;;5088875;28;20037;-67
2023/07/07 05:19:00;;;;;;;7.07;2.92;;;;;;;;;;5091226;28;20008;-66
2023/07/07 05:21:26;;;;;;;6.97;3.33;;;;;;;;;;5090338;28;20032;-67
2023/07/07 05:23:52;;;;;;;5.90;3.10;;;;;;;;;;5090989;28;20027;-66
2023/07/07 05:26:17;;;;;;;6.32;2.90;;;;;;;;;;5090703;28;20069;-67
2023/07/07 05:28:43;;;;;;;3.78;2.53;;;;;;;;;;5091197;28;20481;-67
2023/07/07 05:31:08;;;;;;;9.67;2.97;;;;;;;;;;5090650;28;20024;-67
2023/07/07 05:33:33;;;;;;;4.35;2.55;;;;;;;;;;5091545;28;20358;-67
2023/07/07 05:35:59;;;;;;;7.82;2.95;;;;;;;;;;5090675;28;20059;-67
2023/07/07 05:38:25;;;;;;;10.82;3.00;;;;;;;;;;5091128;28;20024;-67
2023/07/07 05:40:51;;;;;;;17.42;2.88;;;;;;;;;;5090735;28;20057;-67
2023/07/07 05:43:17;;;;;;;5.28;3.33;;;;;;;;;;5082983;28;20024;-67
2023/07/07 05:45:43;;;;;;;4.25;2.53;;;;;;;;;;5091534;28;20449;-67
2023/07/07 05:48:08;;;;;;;5.80;2.72;;;;;;;;;;5089882;28;20046;-67
2023/07/07 05:50:34;;;;;;;5.05;3.05;;;;;;;;;;5090871;28;20035;-67
2023/07/07 05:53:01;;;;;;;8.23;2.75;;;;;;;;;;5087109;28;20020;-68
2023/07/07 05:55:28;;;;;;;5.22;2.83;;;;;;;;;;5083065;28;20113;-67
2023/07/07 05:57:53;;;;;;;5.13;2.90;;;;;;;;;;5091233;28;20024;-67
2023/07/07 06:00:19;;;;;;;7.65;3.08;;;;;;;;;;5091185;28;20036;-67
2023/07/07 06:02:44;;;;;;;5.05;2.72;;;;;;;;;;5063593;28;20031;-67
2023/07/07 06:05:10;;;;;;;9.15;3.10;;;;;;;;;;5091143;28;20035;-67
2023/07/07 06:07:35;;;;;;;5.53;2.23;;;;;;;;;;5088081;28;20532;-68
2023/07/07 06:10:00;;;;;;;3.60;2.37;;;;;;;;;;5089914;28;20274;-68
2023/07/07 06:12:25;;;;;;;6.15;2.45;;;;;;;;;;5091072;28;20266;-68
2023/07/07 06:14:51;;;;;;;5.68;2.65;;;;;;;;;;5089703;28;20032;-67
2023/07/07 06:17:16;;;;;;;5.93;2.28;;;;;;;;;;5086140;28;20045;-68
2023/07/07 06:19:41;;;;;;;10.37;2.47;;;;;;;;;;5091081;28;20032;-68
2023/07/07 06:22:07;;;;;;;4.27;2.30;;;;;;;;;;5090621;28;20609;-68
2023/07/07 06:24:32;;;;;;;4.40;2.35;;;;;;;;;;5090821;28;20278;-68
2023/07/07 06:26:57;;;;;;;4.85;2.97;;;;;;;;;;5090218;28;20428;-68
2023/07/07 06:29:22;;;;;;;4.97;2.77;;;;;;;;;;5087419;28;20034;-67
2023/07/07 06:31:48;;;;;;;3.20;1.87;;;;;;;;;;5090182;28;20361;-68
2023/07/07 06:34:13;;;;;;;3.90;1.98;;;;;;;;;;5090354;28;20764;-68
2023/07/07 06:36:40;;;;;;;8.25;2.78;;;;;;;;;;5089428;28;20032;-68
2023/07/07 06:39:05;;;;;;;3.92;2.20;;;;;;;;;;5090641;28;20031;-68
2023/07/07 06:41:30;;;;;;;7.57;3.08;;;;;;;;;;5089939;28;20437;-67
2023/07/07 06:43:56;;;;;;;4.50;2.37;;;;;;;;;;5093801;28;20027;-68
2023/07/07 06:46:23;;;;;;;4.55;2.78;;;;;;;;;;5093742;28;20345;-68
2023/07/07 06:48:48;;;;;;;5.75;2.72;;;;;;;;;;5093827;28;20031;-67
2023/07/07 06:51:13;;;;;;;5.53;2.67;;;;;;;;;;5093818;28;20016;-68
2023/07/07 06:53:39;;;;;;;5.43;2.43;;;;;;;;;;5093855;28;20024;-68
2023/07/07 06:56:04;;;;;;;6.33;2.93;;;;;;;;;;5093108;28;20802;-68
2023/07/07 06:58:30;;;;;;;6.50;2.35;;;;;;;;;;5094122;28;20278;-68
2023/07/07 07:00:55;;;;;;;4.75;2.47;;;;;;;;;;5094032;28;20491;-67
2023/07/07 07:03:20;;;;;;;3.35;2.15;;;;;;;;;;5093425;28;20044;-67
2023/07/07 07:05:46;;;;;;;5.13;2.20;;;;;;;;;;5080159;28;20059;-67
2023/07/07 07:08:11;;;;;;;5.15;2.35;;;;;;;;;;5087140;28;20028;-67
2023/07/07 07:10:37;;;;;;;5.00;2.28;;;;;;;;;;5092842;28;20767;-67
2023/07/07 07:13:02;;;;;;;4.28;2.22;;;;;;;;;;5092743;28;20016;-67
2023/07/07 07:15:27;;;;;;;7.22;2.75;;;;;;;;;;5086039;28;20037;-67
2023/07/07 07:17:52;;;;;;;6.10;2.70;;;;;;;;;;5086171;28;20028;-67
2023/07/07 07:20:18;;;;;;;4.37;2.37;;;;;;;;;;5093506;28;20027;-67
2023/07/07 07:22:44;;;;;;;7.65;2.85;;;;;;;;;;5092860;28;20331;-67
2023/07/07 07:25:09;;;;;;;5.03;2.67;;;;;;;;;;5093917;28;20024;-67
2023/07/07 07:27:34;;;;;;;6.20;2.40;;;;;;;;;;5093258;28;20103;-67
2023/07/07 07:29:59;;;;;;;5.72;2.53;;;;;;;;;;5092690;28;20035;-67
2023/07/07 07:32:25;;;;;;;9.27;2.90;;;;;;;;;;5093282;28;20027;-67
2023/07/07 07:34:50;;;;;;;7.27;2.77;;;;;;;;;;5092506;28;20063;-67
2023/07/07 07:37:15;;;;;;;7.20;3.25;;;;;;;;;;5092684;28;20324;-67
2023/07/07 07:39:41;;;;;;;5.18;2.58;;;;;;;;;;5092186;28;20028;-67
2023/07/07 07:42:06;;;;;;;4.13;2.60;;;;;;;;;;5083619;28;20025;-67
2023/07/07 07:44:31;;;;;;;5.32;2.78;;;;;;;;;;5087301;28;20035;-67
2023/07/07 07:46:58;;;;;;;4.50;2.80;;;;;;;;;;5092524;28;20095;-67
2023/07/07 07:49:24;;;;;;;6.72;2.50;;;;;;;;;;5092771;28;20371;-67
2023/07/07 07:51:49;;;;;;;6.32;2.40;;;;;;;;;;5091672;28;20020;-67
2023/07/07 07:54:17;;;;;;;4.88;2.30;;;;;;;;;;5091928;28;20020;-67
2023/07/07 07:56:42;;;;;;;4.95;2.35;;;;;;;;;;5092351;28;20139;-67
2023/07/07 07:59:07;;;;;;;3.67;2.03;;;;;;;;;;5092192;28;20522;-67
2023/07/07 08:01:33;;;;;;;4.03;2.05;;;;;;;;;;5092662;28;20608;-67
2023/07/07 08:03:58;;;;;;;4.80;2.60;;;;;;;;;;5090596;28;20027;-67
2023/07/07 08:06:23;;;;;;;6.37;2.43;;;;;;;;;;5090080;28;20182;-67
2023/07/07 08:08:49;;;;;;;5.75;2.90;;;;;;;;;;5092166;28;20748;-67
2023/07/07 08:11:16;;;;;;;5.35;2.72;;;;;;;;;;5092297;28;20073;-67
2023/07/07 08:13:41;;;;;;;7.30;2.58;;;;;;;;;;5092452;28;20024;-67
2023/07/07 08:16:09;;;;;;;6.67;3.00;;;;;;;;;;5084075;28;20070;-67
2023/07/07 08:18:34;;;;;;;5.75;3.00;;;;;;;;;;5092756;28;20331;-67
2023/07/07 08:20:59;;;;;;;8.07;2.77;;;;;;;;;;5091035;28;20012;-67
2023/07/07 08:23:24;;;;;;;5.33;2.67;;;;;;;;;;5092190;28;20274;-66
2023/07/07 08:25:51;;;;;;;8.27;3.43;;;;;;;;;;5092756;28;20280;-65
2023/07/07 08:28:17;;;;;;;4.90;2.58;;;;;;;;;;5092081;28;20297;-66
2023/07/07 08:30:42;;;;;;;6.87;2.90;;;;;;;;;;5091933;28;20020;-66
2023/07/07 08:33:07;;;;;;;13.43;2.97;;;;;;;;;;5091949;28;20702;-67
2023/07/07 08:35:32;;;;;;;4.17;2.03;;;;;;;;;;5092477;28;20289;-66
2023/07/07 08:37:58;;;;;;;6.40;2.83;;;;;;;;;;5091546;28;20339;-66
2023/07/07 08:40:24;;;;;;;5.83;2.83;;;;;;;;;;5091890;28;20281;-66
2023/07/07 08:42:50;;;;;;;5.13;2.78;;;;;;;;;;5088167;28;20349;-66
2023/07/07 08:45:17;;;;;;;6.15;2.70;;;;;;;;;;5092220;28;20119;-66
2023/07/07 08:47:57;;;;;;;6.40;2.88;;;;;;;;;;5089330;28;20080;-66
2023/07/07 08:50:22;;;;;;;4.55;2.50;;;;;;;;;;5091765;28;20060;-66
2023/07/07 08:53:03;;;;;;;5.77;2.77;;;;;;;;;;5091732;28;20058;-65
2023/07/07 08:55:37;;;;;;;6.47;2.72;;;;;;;;;;5088771;28;20369;-66
2023/07/07 08:58:02;;;;;;;;;;;;;;;;;;5090508;28;20064;-66
2023/07/07 09:00:33;;;;;;;5.63;2.08;;;;;;;;;;5091941;28;19962;-66
2023/07/07 09:03:22;;;;;;;4.55;1.92;;;;;;;;;;5091169;28;20838;-66
2023/07/07 09:06:06;;;;;;;10.63;2.42;;;;;;;;;;5077164;28;20115;-66
2023/07/07 09:08:57;;;;;;;4.22;2.20;;;;;;;;;;5091711;28;20020;-66
2023/07/07 09:11:55;;;;;;;6.40;2.97;;;;;;;;;;5086711;28;20078;-66
2023/07/07 09:14:20;;;;;;;8.73;2.45;;;;;;;;;;5033759;28;20054;-66
2023/07/07 09:16:47;;;;;;;5.32;2.08;;;;;;;;;;5081994;28;20028;-66
2023/07/07 09:19:23;;;;;;;10.77;2.15;;;;;;;;;;5090942;28;20177;-67
2023/07/07 09:21:51;;;;;;;6.18;2.72;;;;;;;;;;5073301;28;20020;-66
2023/07/07 09:24:25;;;;;;;5.93;2.60;;;;;;;;;;5090692;28;20081;-66
2023/07/07 09:26:52;;;;;;;4.95;2.03;;;;;;;;;;5085328;28;20331;-67
2023/07/07 09:29:21;;;;;;;7.32;2.35;;;;;;;;;;5089831;28;20028;-66
2023/07/07 09:31:46;;;;;;;5.90;2.80;;;;;;;;;;5076126;28;20423;-66
2023/07/07 09:34:12;;;;;;;6.40;2.70;;;;;;;;;;5091629;28;20089;-66
2023/07/07 09:37:03;;;;;;;5.15;2.63;;;;;;;;;;5090463;28;20036;-66
2023/07/07 09:39:34;;;;;;;5.07;2.40;;;;;;;;;;5090705;28;20023;-66
2023/07/07 09:42:08;;;;;;;6.97;2.15;;;;;;;;;;5091227;28;20085;-66
2023/07/07 09:44:57;;;;;;;8.70;2.22;;;;;;;;;;5077499;28;20075;-66
2023/07/07 09:47:29;;;;;;;8.68;2.53;;;;;;;;;;5071343;28;20039;-66
2023/07/07 09:50:04;;;;;;;5.90;2.38;;;;;;;;;;5090127;28;20023;-66
2023/07/07 09:52:32;;;;;;;4.82;2.47;;;;;;;;;;5090058;28;20456;-66
2023/07/07 09:54:58;;;;;;;6.43;2.40;;;;;;;;;;5082935;28;20367;-66
2023/07/07 09:57:29;;;;;;;4.72;1.95;;;;;;;;;;5091053;28;20026;-66
2023/07/07 09:59:55;;;;;;;4.13;2.05;;;;;;;;;;5078382;28;20022;-66
2023/07/07 10:02:23;;;;;;;7.43;1.92;;;;;;;;;;5090137;28;20535;-67
2023/07/07 10:04:50;;;;;;;6.35;2.47;;;;;;;;;;5090310;28;20024;-67
2023/07/07 10:07:16;;;;;;;6.47;2.70;;;;;;;;;;5090403;28;20123;-67
2023/07/07 10:09:43;;;;;;;3.60;2.00;;;;;;;;;;5091186;28;20024;-67
2023/07/07 10:12:11;;;;;;;8.23;2.65;;;;;;;;;;5090753;28;20036;-67
2023/07/07 10:14:36;;;;;;;6.18;2.50;;;;;;;;;;5091304;28;20382;-66
2023/07/07 10:17:08;;;;;;;4.97;2.08;;;;;;;;;;5086849;28;20016;-66
2023/07/07 10:19:34;;;;;;;5.05;2.13;;;;;;;;;;5094484;28;20024;-67
2023/07/07 10:22:00;;;;;;;5.57;2.15;;;;;;;;;;5093388;28;20024;-67
2023/07/07 10:24:27;;;;;;;4.13;2.20;;;;;;;;;;5094777;28;20402;-67
2023/07/07 10:26:52;;;;;;;7.38;2.92;;;;;;;;;;5093981;28;20039;-67
2023/07/07 10:29:22;;;;;;;7.20;2.70;;;;;;;;;;5093658;28;20043;-67
2023/07/07 10:31:47;;;;;;;5.22;2.67;;;;;;;;;;5093567;28;20281;-67
2023/07/07 10:34:33;;;;;;;5.88;2.50;;;;;;;;;;5094640;28;20040;-67
2023/07/07 10:36:58;;;;;;;3.50;2.22;;;;;;;;;;5093798;28;20032;-67
2023/07/07 10:39:25;;;;;;;4.13;2.33;;;;;;;;;;5094035;28;20035;-67
2023/07/07 10:41:50;;;;;;;7.43;2.47;;;;;;;;;;5093677;28;20379;-67
2023/07/07 10:44:15;;;;;;;4.32;2.50;;;;;;;;;;5092959;28;20020;-66
2023/07/07 10:46:41;;;;;;;6.10;2.37;;;;;;;;;;5093245;28;20020;-67
2023/07/07 10:49:14;;;;;;;4.43;2.60;;;;;;;;;;5093207;28;20840;-67
2023/07/07 10:51:58;;;;;;;5.30;2.65;;;;;;;;;;5093919;28;20349;-67
2023/07/07 10:54:23;;;;;;;3.95;2.42;;;;;;;;;;5088305;28;20035;-67
2023/07/07 10:56:55;;;;;;;6.40;3.50;;;;;;;;;;5092797;28;20028;-67
2023/07/07 10:59:29;;;;;;;6.03;3.17;;;;;;;;;;5093677;28;20293;-67
2023/07/07 11:02:13;;;;;;;9.57;3.22;;;;;;;;;;5094656;28;20420;-67
2023/07/07 11:04:45;;;;;;;4.20;2.70;;;;;;;;;;5093136;28;20019;-67
2023/07/07 11:07:22;;;;;;;6.15;3.75;;;;;;;;;;5087150;28;20390;-67
2023/07/07 11:09:56;;;;;;;5.72;3.78;;;;;;;;;;5092818;28;20024;-67
2023/07/07 11:12:31;;;;;;;6.13;3.80;;;;;;;;;;5093239;28;20038;-67
2023/07/07 11:14:56;;;;;;;;;;;;;;;;;;5091812;28;20040;-67
2023/07/07 11:17:40;;;;;;;6.15;2.85;;;;;;;;;;5093463;28;19912;-67
2023/07/07 11:20:20;;;;;;;8.68;3.80;;;;;;;;;;5093301;28;20077;-67
2023/07/07 11:22:56;;;;;;;6.43;4.05;;;;;;;;;;5092760;28;20020;-67
2023/07/07 11:25:36;;;;;;;5.25;3.40;;;;;;;;;;5082504;28;20059;-67
2023/07/07 11:28:13;;;;;;;6.72;3.85;;;;;;;;;;5092437;28;20425;-68
2023/07/07 11:30:41;;;;;;;5.80;3.70;;;;;;;;;;5093656;28;20478;-67
2023/07/07 11:33:25;;;;;;;5.72;3.97;;;;;;;;;;5093310;28;20028;-67
2023/07/07 11:35:55;;;;;;;5.78;3.15;;;;;;;;;;5091327;28;20466;-67
2023/07/07 11:38:40;;;;;;;7.22;2.85;;;;;;;;;;5092339;28;20024;-67
2023/07/07 11:41:11;;;;;;;12.27;3.63;;;;;;;;;;5092192;28;20024;-67
2023/07/07 11:43:36;;;;;;;5.70;2.75;;;;;;;;;;5090400;28;20028;-67
2023/07/07 11:46:02;;;;;;;6.27;3.43;;;;;;;;;;5091693;28;20074;-67
2023/07/07 11:48:30;;;;;;;11.07;3.33;;;;;;;;;;5091362;28;20036;-68
2023/07/07 11:51:03;;;;;;;7.75;3.72;;;;;;;;;;5090762;28;20031;-67
2023/07/07 11:53:28;;;;;;;7.27;3.10;;;;;;;;;;5091674;28;20024;-67
2023/07/07 11:55:59;;;;;;;5.80;3.60;;;;;;;;;;5092023;28;20309;-68
2023/07/07 11:58:33;;;;;;;6.88;3.38;;;;;;;;;;5090981;28;20563;-67
2023/07/07 12:01:01;;;;;;;5.47;3.15;;;;;;;;;;5088442;28;20032;-67
2023/07/07 12:03:34;;;;;;;5.72;3.08;;;;;;;;;;5086538;28;20073;-68
2023/07/07 12:06:02;;;;;;;6.35;3.35;;;;;;;;;;5088827;28;20028;-67
2023/07/07 12:08:50;;;;;;;7.35;3.55;;;;;;;;;;5090581;28;20387;-67
2023/07/07 12:11:18;;;;;;;6.20;3.15;;;;;;;;;;5091172;28;20028;-67
2023/07/07 12:14:07;;;;;;;8.05;3.47;;;;;;;;;;5091206;28;20028;-67
2023/07/07 12:16:36;;;;;;;7.75;3.58;;;;;;;;;;5074677;28;20163;-68
2023/07/07 12:19:14;;;;;;;7.95;3.08;;;;;;;;;;5086921;28;20032;-68
2023/07/07 12:21:40;;;;;;;6.28;3.15;;;;;;;;;;5091600;28;20108;-67
2023/07/07 12:24:24;;;;;;;4.60;2.92;;;;;;;;;;5091401;28;20115;-67
2023/07/07 12:27:00;;;;;;;5.47;3.10;;;;;;;;;;5069437;28;20024;-67
2023/07/07 12:29:27;;;;;;;6.15;3.00;;;;;;;;;;5046792;28;20028;-67
2023/07/07 12:31:52;;;;;;;6.45;3.17;;;;;;;;;;5045655;28;20032;-67
2023/07/07 12:34:36;;;;;;;7.90;2.97;;;;;;;;;;5047774;28;20020;-67
2023/07/07 12:37:02;;;;;;;6.00;3.40;;;;;;;;;;5040959;28;20043;-67
2023/07/07 12:39:27;;;;;;;4.70;3.38;;;;;;;;;;5049411;28;20024;-68
2023/07/07 12:41:52;;;;;;;6.07;2.83;;;;;;;;;;5047964;28;20037;-68
2023/07/07 12:44:18;;;;;;;8.13;3.42;;;;;;;;;;5048174;28;20062;-68
2023/07/07 12:46:43;;;;;;;6.07;2.93;;;;;;;;;;5047753;28;20859;-67
2023/07/07 12:49:21;;;;;;;5.15;3.47;;;;;;;;;;5038439;28;20029;-67
2023/07/07 12:51:53;;;;;;;6.75;4.30;;;;;;;;;;5045677;28;20024;-67
2023/07/07 12:54:34;;;;;;;8.18;3.55;;;;;;;;;;5046577;28;20023;-67
2023/07/07 12:57:02;;;;;;;11.77;3.58;;;;;;;;;;5070568;28;20065;-67
2023/07/07 12:59:33;;;;;;;4.40;3.10;;;;;;;;;;5068284;28;20024;-67
2023/07/07 13:02:09;;;;;;;9.48;4.15;;;;;;;;;;5087513;28;20031;-67
2023/07/07 13:04:38;;;;;;;4.80;3.00;;;;;;;;;;5090790;28;20069;-67
2023/07/07 13:07:05;;;;;;;6.25;3.88;;;;;;;;;;5091907;28;20124;-68
2023/07/07 13:09:45;;;;;;;6.07;3.50;;;;;;;;;;5089161;28;20035;-67
2023/07/07 13:12:30;;;;;;;5.22;3.15;;;;;;;;;;5080395;28;20040;-67
2023/07/07 13:15:03;;;;;;;8.18;4.03;;;;;;;;;;5082613;28;20151;-68
2023/07/07 13:17:28;;;;;;;4.72;3.38;;;;;;;;;;5091144;28;20355;-68
2023/07/07 13:19:56;;;;;;;9.87;4.17;;;;;;;;;;5091644;28;20031;-67
2023/07/07 13:22:25;;;;;;;8.20;3.72;;;;;;;;;;5092056;28;20043;-67
2023/07/07 13:24:54;;;;;;;11.73;4.13;;;;;;;;;;5091191;28;20016;-67
2023/07/07 13:27:21;;;;;;;7.47;3.60;;;;;;;;;;5079332;28;20044;-67
2023/07/07 13:29:47;;;;;;;5.40;3.72;;;;;;;;;;5089730;28;20016;-67
2023/07/07 13:32:25;;;;;;;4.85;2.92;;;;;;;;;;5090902;28;20458;-67
2023/07/07 13:34:50;;;;;;;8.15;3.28;;;;;;;;;;5090763;28;20016;-67
2023/07/07 13:37:16;;;;;;;5.03;3.07;;;;;;;;;;5090988;28;20391;-67
2023/07/07 13:39:42;;;;;;;6.22;3.40;;;;;;;;;;5091060;28;20028;-67
2023/07/07 13:42:07;;;;;;;6.47;3.00;;;;;;;;;;5085927;28;20020;-67
2023/07/07 13:44:33;;;;;;;5.20;3.58;;;;;;;;;;5086000;28;20516;-70
2023/07/07 13:47:03;;;;;;;5.82;3.40;;;;;;;;;;5088886;28;20107;-67
2023/07/07 13:49:31;;;;;;;5.38;3.50;;;;;;;;;;5089634;28;20069;-67
2023/07/07 13:51:56;;;;;;;4.75;3.03;;;;;;;;;;5090706;28;20428;-67
2023/07/07 13:54:22;;;;;;;9.02;3.63;;;;;;;;;;5084797;28;20024;-67
2023/07/07 13:56:50;;;;;;;7.38;2.92;;;;;;;;;;5090149;28;20138;-66
2023/07/07 13:59:18;;;;;;;4.50;3.38;;;;;;;;;;5090903;28;20380;-66
2023/07/07 14:01:44;;;;;;;5.15;2.95;;;;;;;;;;5083470;28;20119;-66
2023/07/07 14:04:14;;;;;;;4.95;3.08;;;;;;;;;;5088931;28;20055;-66
2023/07/07 14:06:40;;;;;;;9.43;3.20;;;;;;;;;;5090411;28;20028;-66
2023/07/07 14:09:19;;;;;;;6.20;2.75;;;;;;;;;;5084407;28;20082;-66
2023/07/07 14:11:49;;;;;;;5.25;3.03;;;;;;;;;;5085241;28;20081;-65
2023/07/07 14:14:14;;;;;;;6.55;3.35;;;;;;;;;;5086236;28;20111;-67
2023/07/07 14:16:42;;;;;;;6.37;2.97;;;;;;;;;;5077102;28;20107;-66
2023/07/07 14:19:19;;;;;;;7.10;3.50;;;;;;;;;;5090367;28;20266;-68
2023/07/07 14:21:45;;;;;;;7.50;3.38;;;;;;;;;;5089692;28;20417;-66
2023/07/07 14:24:16;;;;;;;5.13;3.13;;;;;;;;;;5090677;28;20128;-66
2023/07/07 14:26:42;;;;;;;6.25;3.67;;;;;;;;;;5089545;28;20447;-65
2023/07/07 14:29:07;;;;;;;4.32;2.72;;;;;;;;;;5083878;28;20020;-66
2023/07/07 14:31:33;;;;;;;4.82;3.08;;;;;;;;;;5090406;28;20027;-66
2023/07/07 14:34:00;;;;;;;7.20;3.03;;;;;;;;;;5090125;28;20070;-67
2023/07/07 14:36:27;;;;;;;4.85;3.08;;;;;;;;;;5090298;28;20474;-66
2023/07/07 14:38:59;;;;;;;7.53;3.05;;;;;;;;;;5090576;28;20131;-66
2023/07/07 14:41:26;;;;;;;5.95;3.35;;;;;;;;;;5091369;28;20032;-65
2023/07/07 14:43:51;;;;;;;5.18;3.45;;;;;;;;;;5090496;28;20106;-67
2023/07/07 14:46:17;;;;;;;4.93;3.22;;;;;;;;;;5090660;28;20103;-65
2023/07/07 14:48:51;;;;;;;5.97;3.47;;;;;;;;;;5090204;28;20031;-66